sensor_id;sensor_type;location;lat;lon;timestamp;temperature;humidity
22290;DHT22;11313;50.116;8.424;2023-12-20T00:01:18;25.30;42.80
22290;DHT22;11313;50.116;8.424;2023-12-20T00:03:44;25.30;42.80
22290;DHT22;11313;50.116;8.424;2023-12-20T00:06:10;25.30;42.80
22290;DHT22;11313;50.116;8.424;2023-12-20T00:08:35;25.30;42.80
22290;DHT22;11313;50.116;8.424;2023-12-20T00:11:01;25.30;42.80
22290;DHT22;11313;50.116;8.424;2023-12-20T00:13:27;25.30;42.80
22290;DHT22;11313;50.116;8.424;2023-12-20T00:15:52;25.30;42.80
22290;DHT22;11313;50.116;8.424;2023-12-20T00:18:18;25.30;42.80
22290;DHT22;11313;50.116;8.424;2023-12-20T00:20:44;25.30;42.80
22290;DHT22;11313;50.116;8.424;2023-12-20T00:23:09;25.30;42.80
22290;DHT22;11313;50.116;8.424;2023-12-20T00:25:35;25.30;42.90
22290;DHT22;11313;50.116;8.424;2023-12-20T00:28:01;25.30;42.80
22290;DHT22;11313;50.116;8.424;2023-12-20T00:30:27;25.30;42.80
22290;DHT22;11313;50.116;8.424;2023-12-20T00:32:53;25.30;42.80
22290;DHT22;11313;50.116;8.424;2023-12-20T00:35:18;25.30;42.80
22290;DHT22;11313;50.116;8.424;2023-12-20T00:37:44;25.30;42.80
22290;DHT22;11313;50.116;8.424;2023-12-20T00:40:10;25.30;42.80
22290;DHT22;11313;50.116;8.424;2023-12-20T00:42:35;25.30;42.80
22290;DHT22;11313;50.116;8.424;2023-12-20T00:45:01;25.30;42.80
22290;DHT22;11313;50.116;8.424;2023-12-20T00:47:28;25.30;42.80
22290;DHT22;11313;50.116;8.424;2023-12-20T00:49:53;25.30;42.90
22290;DHT22;11313;50.116;8.424;2023-12-20T00:52:19;25.30;42.80
22290;DHT22;11313;50.116;8.424;2023-12-20T00:54:45;25.30;42.80
22290;DHT22;11313;50.116;8.424;2023-12-20T00:57:10;25.30;42.80
22290;DHT22;11313;50.116;8.424;2023-12-20T00:59:36;25.30;42.90
22290;DHT22;11313;50.116;8.424;2023-12-20T01:02:01;25.20;42.80
22290;DHT22;11313;50.116;8.424;2023-12-20T01:04:27;25.20;42.80
22290;DHT22;11313;50.116;8.424;2023-12-20T01:06:53;25.20;42.80
22290;DHT22;11313;50.116;8.424;2023-12-20T01:09:18;25.20;42.80
22290;DHT22;11313;50.116;8.424;2023-12-20T01:11:44;25.20;42.80
22290;DHT22;11313;50.116;8.424;2023-12-20T01:14:11;25.20;42.80
22290;DHT22;11313;50.116;8.424;2023-12-20T01:16:37;25.20;42.80
22290;DHT22;11313;50.116;8.424;2023-12-20T01:19:02;25.20;42.90
22290;DHT22;11313;50.116;8.424;2023-12-20T01:21:28;25.20;42.90
22290;DHT22;11313;50.116;8.424;2023-12-20T01:23:53;25.20;42.90
22290;DHT22;11313;50.116;8.424;2023-12-20T01:26:19;25.20;42.90
22290;DHT22;11313;50.116;8.424;2023-12-20T01:28:44;25.20;42.90
22290;DHT22;11313;50.116;8.424;2023-12-20T01:31:10;25.20;42.90
22290;DHT22;11313;50.116;8.424;2023-12-20T01:33:35;25.20;42.90
22290;DHT22;11313;50.116;8.424;2023-12-20T01:36:01;25.20;42.90
22290;DHT22;11313;50.116;8.424;2023-12-20T01:38:26;25.20;42.90
22290;DHT22;11313;50.116;8.424;2023-12-20T01:40:52;25.20;42.90
22290;DHT22;11313;50.116;8.424;2023-12-20T01:43:17;25.20;42.90
22290;DHT22;11313;50.116;8.424;2023-12-20T01:45:43;25.20;43.00
22290;DHT22;11313;50.116;8.424;2023-12-20T01:48:08;25.20;42.90
22290;DHT22;11313;50.116;8.424;2023-12-20T01:50:36;25.20;42.90
22290;DHT22;11313;50.116;8.424;2023-12-20T01:53:03;25.20;43.00
22290;DHT22;11313;50.116;8.424;2023-12-20T01:55:32;25.20;43.00
22290;DHT22;11313;50.116;8.424;2023-12-20T01:57:59;25.20;43.00
22290;DHT22;11313;50.116;8.424;2023-12-20T02:00:26;25.10;42.90
22290;DHT22;11313;50.116;8.424;2023-12-20T02:02:53;25.10;42.90
22290;DHT22;11313;50.116;8.424;2023-12-20T02:05:20;25.10;42.90
22290;DHT22;11313;50.116;8.424;2023-12-20T02:07:46;25.10;43.00
22290;DHT22;11313;50.116;8.424;2023-12-20T02:10:12;25.10;43.00
22290;DHT22;11313;50.116;8.424;2023-12-20T02:12:38;25.10;43.00
22290;DHT22;11313;50.116;8.424;2023-12-20T02:15:04;25.10;43.00
22290;DHT22;11313;50.116;8.424;2023-12-20T02:17:31;25.10;43.00
22290;DHT22;11313;50.116;8.424;2023-12-20T02:19:57;25.10;42.90
22290;DHT22;11313;50.116;8.424;2023-12-20T02:22:23;25.20;43.00
22290;DHT22;11313;50.116;8.424;2023-12-20T02:24:48;25.20;43.00
22290;DHT22;11313;50.116;8.424;2023-12-20T02:27:15;25.10;43.00
22290;DHT22;11313;50.116;8.424;2023-12-20T02:29:43;25.20;43.00
22290;DHT22;11313;50.116;8.424;2023-12-20T02:32:08;25.20;42.90
22290;DHT22;11313;50.116;8.424;2023-12-20T02:34:34;25.20;43.00
22290;DHT22;11313;50.116;8.424;2023-12-20T02:36:59;25.20;42.90
22290;DHT22;11313;50.116;8.424;2023-12-20T02:39:25;25.20;43.00
22290;DHT22;11313;50.116;8.424;2023-12-20T02:41:51;25.20;42.90
22290;DHT22;11313;50.116;8.424;2023-12-20T02:44:16;25.20;42.90
22290;DHT22;11313;50.116;8.424;2023-12-20T02:46:42;25.20;42.90
22290;DHT22;11313;50.116;8.424;2023-12-20T02:49:07;25.20;42.90
22290;DHT22;11313;50.116;8.424;2023-12-20T02:51:33;25.20;42.90
22290;DHT22;11313;50.116;8.424;2023-12-20T02:53:58;25.20;42.90
22290;DHT22;11313;50.116;8.424;2023-12-20T02:56:23;25.20;43.50
22290;DHT22;11313;50.116;8.424;2023-12-20T02:58:49;25.20;43.50
22290;DHT22;11313;50.116;8.424;2023-12-20T03:01:14;25.30;42.90
22290;DHT22;11313;50.116;8.424;2023-12-20T03:03:40;25.30;42.90
22290;DHT22;11313;50.116;8.424;2023-12-20T03:06:05;25.30;42.90
22290;DHT22;11313;50.116;8.424;2023-12-20T03:08:31;25.30;42.90
22290;DHT22;11313;50.116;8.424;2023-12-20T03:10:56;25.30;42.90
22290;DHT22;11313;50.116;8.424;2023-12-20T03:13:22;25.30;42.90
22290;DHT22;11313;50.116;8.424;2023-12-20T03:15:47;25.30;42.90
22290;DHT22;11313;50.116;8.424;2023-12-20T03:18:13;25.30;42.90
22290;DHT22;11313;50.116;8.424;2023-12-20T03:20:38;25.30;42.90
22290;DHT22;11313;50.116;8.424;2023-12-20T03:23:04;25.30;42.90
22290;DHT22;11313;50.116;8.424;2023-12-20T03:25:29;25.30;42.90
22290;DHT22;11313;50.116;8.424;2023-12-20T03:27:55;25.30;42.90
22290;DHT22;11313;50.116;8.424;2023-12-20T03:30:21;25.30;42.90
22290;DHT22;11313;50.116;8.424;2023-12-20T03:32:46;25.30;42.90
22290;DHT22;11313;50.116;8.424;2023-12-20T03:35:12;25.30;42.90
22290;DHT22;11313;50.116;8.424;2023-12-20T03:37:38;25.30;42.90
22290;DHT22;11313;50.116;8.424;2023-12-20T03:40:03;25.30;42.90
22290;DHT22;11313;50.116;8.424;2023-12-20T03:42:29;25.30;42.90
22290;DHT22;11313;50.116;8.424;2023-12-20T03:44:54;25.30;42.90
22290;DHT22;11313;50.116;8.424;2023-12-20T03:47:20;25.30;43.00
22290;DHT22;11313;50.116;8.424;2023-12-20T03:49:45;25.30;42.90
22290;DHT22;11313;50.116;8.424;2023-12-20T03:52:11;25.30;42.90
22290;DHT22;11313;50.116;8.424;2023-12-20T03:54:37;25.30;42.90
22290;DHT22;11313;50.116;8.424;2023-12-20T03:57:03;25.30;42.90
22290;DHT22;11313;50.116;8.424;2023-12-20T03:59:29;25.30;42.90
22290;DHT22;11313;50.116;8.424;2023-12-20T04:01:54;25.30;42.90
22290;DHT22;11313;50.116;8.424;2023-12-20T04:04:20;25.30;43.00
22290;DHT22;11313;50.116;8.424;2023-12-20T04:06:45;25.30;42.90
22290;DHT22;11313;50.116;8.424;2023-12-20T04:09:11;25.30;43.00
22290;DHT22;11313;50.116;8.424;2023-12-20T04:11:37;25.30;43.00
22290;DHT22;11313;50.116;8.424;2023-12-20T04:14:03;25.30;42.90
22290;DHT22;11313;50.116;8.424;2023-12-20T04:16:30;25.20;42.80
22290;DHT22;11313;50.116;8.424;2023-12-20T04:18:55;25.20;43.50
22290;DHT22;11313;50.116;8.424;2023-12-20T04:21:21;25.20;42.90
22290;DHT22;11313;50.116;8.424;2023-12-20T04:23:46;25.20;43.00
22290;DHT22;11313;50.116;8.424;2023-12-20T04:26:12;25.20;42.90
22290;DHT22;11313;50.116;8.424;2023-12-20T04:28:37;25.20;42.90
22290;DHT22;11313;50.116;8.424;2023-12-20T04:31:03;25.20;42.90
22290;DHT22;11313;50.116;8.424;2023-12-20T04:33:28;25.20;42.90
22290;DHT22;11313;50.116;8.424;2023-12-20T04:35:54;25.20;43.00
22290;DHT22;11313;50.116;8.424;2023-12-20T04:38:19;25.20;43.00
22290;DHT22;11313;50.116;8.424;2023-12-20T04:40:45;25.20;43.00
22290;DHT22;11313;50.116;8.424;2023-12-20T04:43:10;25.20;43.00
22290;DHT22;11313;50.116;8.424;2023-12-20T04:45:36;25.20;43.00
22290;DHT22;11313;50.116;8.424;2023-12-20T04:48:02;25.20;43.00
22290;DHT22;11313;50.116;8.424;2023-12-20T04:50:28;25.20;43.10
22290;DHT22;11313;50.116;8.424;2023-12-20T04:52:53;25.20;43.10
22290;DHT22;11313;50.116;8.424;2023-12-20T04:55:19;25.20;43.10
22290;DHT22;11313;50.116;8.424;2023-12-20T04:57:45;25.20;43.10
22290;DHT22;11313;50.116;8.424;2023-12-20T05:00:11;25.20;43.10
22290;DHT22;11313;50.116;8.424;2023-12-20T05:02:37;25.10;43.00
22290;DHT22;11313;50.116;8.424;2023-12-20T05:05:03;25.10;43.00
22290;DHT22;11313;50.116;8.424;2023-12-20T05:07:28;25.10;43.00
22290;DHT22;11313;50.116;8.424;2023-12-20T05:09:54;25.10;43.10
22290;DHT22;11313;50.116;8.424;2023-12-20T05:12:21;25.10;43.70
22290;DHT22;11313;50.116;8.424;2023-12-20T05:14:46;25.10;43.00
22290;DHT22;11313;50.116;8.424;2023-12-20T05:17:14;25.20;43.10
22290;DHT22;11313;50.116;8.424;2023-12-20T05:19:39;25.20;43.10
22290;DHT22;11313;50.116;8.424;2023-12-20T05:22:05;25.20;43.10
22290;DHT22;11313;50.116;8.424;2023-12-20T05:24:30;25.20;43.10
22290;DHT22;11313;50.116;8.424;2023-12-20T05:26:56;25.20;43.10
22290;DHT22;11313;50.116;8.424;2023-12-20T05:29:21;25.20;43.00
22290;DHT22;11313;50.116;8.424;2023-12-20T05:31:47;25.20;43.00
22290;DHT22;11313;50.116;8.424;2023-12-20T05:34:12;25.20;43.00
22290;DHT22;11313;50.116;8.424;2023-12-20T05:36:38;25.20;43.00
22290;DHT22;11313;50.116;8.424;2023-12-20T05:39:04;25.20;43.00
22290;DHT22;11313;50.116;8.424;2023-12-20T05:41:30;25.20;43.00
22290;DHT22;11313;50.116;8.424;2023-12-20T05:43:56;25.20;43.00
22290;DHT22;11313;50.116;8.424;2023-12-20T05:46:23;25.20;43.00
22290;DHT22;11313;50.116;8.424;2023-12-20T05:48:49;25.20;43.00
22290;DHT22;11313;50.116;8.424;2023-12-20T05:51:14;25.20;43.00
22290;DHT22;11313;50.116;8.424;2023-12-20T05:53:40;25.20;43.00
22290;DHT22;11313;50.116;8.424;2023-12-20T05:56:06;25.20;43.00
22290;DHT22;11313;50.116;8.424;2023-12-20T05:58:32;25.20;43.10
22290;DHT22;11313;50.116;8.424;2023-12-20T06:00:58;25.20;43.00
22290;DHT22;11313;50.116;8.424;2023-12-20T06:03:23;25.20;43.10
22290;DHT22;11313;50.116;8.424;2023-12-20T06:05:49;25.20;43.10
22290;DHT22;11313;50.116;8.424;2023-12-20T06:08:14;25.20;43.10
22290;DHT22;11313;50.116;8.424;2023-12-20T06:10:40;25.10;43.00
22290;DHT22;11313;50.116;8.424;2023-12-20T06:13:05;25.10;43.00
22290;DHT22;11313;50.116;8.424;2023-12-20T06:15:32;25.10;43.00
22290;DHT22;11313;50.116;8.424;2023-12-20T06:17:58;25.10;43.00
22290;DHT22;11313;50.116;8.424;2023-12-20T06:20:23;25.10;43.10
22290;DHT22;11313;50.116;8.424;2023-12-20T06:22:49;25.10;43.10
22290;DHT22;11313;50.116;8.424;2023-12-20T06:25:14;25.10;43.10
22290;DHT22;11313;50.116;8.424;2023-12-20T06:27:40;25.10;43.10
22290;DHT22;11313;50.116;8.424;2023-12-20T06:30:07;25.10;43.20
22290;DHT22;11313;50.116;8.424;2023-12-20T06:32:34;25.10;43.20
22290;DHT22;11313;50.116;8.424;2023-12-20T06:35:00;25.10;43.20
22290;DHT22;11313;50.116;8.424;2023-12-20T06:37:25;25.10;43.20
22290;DHT22;11313;50.116;8.424;2023-12-20T06:39:51;25.10;43.20
22290;DHT22;11313;50.116;8.424;2023-12-20T06:42:16;25.10;43.20
22290;DHT22;11313;50.116;8.424;2023-12-20T06:44:42;25.10;43.10
22290;DHT22;11313;50.116;8.424;2023-12-20T06:47:07;25.10;43.20
22290;DHT22;11313;50.116;8.424;2023-12-20T06:49:33;25.10;43.20
22290;DHT22;11313;50.116;8.424;2023-12-20T06:51:58;25.10;43.20
22290;DHT22;11313;50.116;8.424;2023-12-20T06:54:24;25.10;43.20
22290;DHT22;11313;50.116;8.424;2023-12-20T06:56:49;25.10;43.20
22290;DHT22;11313;50.116;8.424;2023-12-20T06:59:15;25.10;43.20
22290;DHT22;11313;50.116;8.424;2023-12-20T07:01:41;25.10;43.20
22290;DHT22;11313;50.116;8.424;2023-12-20T07:04:06;25.10;43.20
22290;DHT22;11313;50.116;8.424;2023-12-20T07:06:32;25.10;43.20
22290;DHT22;11313;50.116;8.424;2023-12-20T07:08:57;25.10;43.20
22290;DHT22;11313;50.116;8.424;2023-12-20T07:11:23;25.10;43.20
22290;DHT22;11313;50.116;8.424;2023-12-20T07:13:49;25.10;43.20
22290;DHT22;11313;50.116;8.424;2023-12-20T07:16:15;25.10;43.10
22290;DHT22;11313;50.116;8.424;2023-12-20T07:18:40;25.10;43.20
22290;DHT22;11313;50.116;8.424;2023-12-20T07:21:06;25.10;43.20
22290;DHT22;11313;50.116;8.424;2023-12-20T07:23:33;25.10;43.10
22290;DHT22;11313;50.116;8.424;2023-12-20T07:25:59;25.10;43.10
22290;DHT22;11313;50.116;8.424;2023-12-20T07:28:24;25.10;43.20
22290;DHT22;11313;50.116;8.424;2023-12-20T07:30:50;25.10;43.10
22290;DHT22;11313;50.116;8.424;2023-12-20T07:33:16;25.10;43.10
22290;DHT22;11313;50.116;8.424;2023-12-20T07:35:41;25.10;43.10
22290;DHT22;11313;50.116;8.424;2023-12-20T07:38:07;25.10;43.10
22290;DHT22;11313;50.116;8.424;2023-12-20T07:40:32;25.20;43.20
22290;DHT22;11313;50.116;8.424;2023-12-20T07:42:58;25.20;43.20
22290;DHT22;11313;50.116;8.424;2023-12-20T07:45:23;25.20;43.20
22290;DHT22;11313;50.116;8.424;2023-12-20T07:47:49;25.20;43.20
22290;DHT22;11313;50.116;8.424;2023-12-20T07:50:15;25.20;43.20
22290;DHT22;11313;50.116;8.424;2023-12-20T07:52:41;25.20;43.20
22290;DHT22;11313;50.116;8.424;2023-12-20T07:55:07;25.20;43.20
22290;DHT22;11313;50.116;8.424;2023-12-20T07:57:32;25.20;43.20
22290;DHT22;11313;50.116;8.424;2023-12-20T07:59:58;25.20;43.20
22290;DHT22;11313;50.116;8.424;2023-12-20T08:02:23;25.20;43.20
22290;DHT22;11313;50.116;8.424;2023-12-20T08:04:49;25.20;43.20
22290;DHT22;11313;50.116;8.424;2023-12-20T08:07:14;25.20;43.20
22290;DHT22;11313;50.116;8.424;2023-12-20T08:09:40;25.20;43.20
22290;DHT22;11313;50.116;8.424;2023-12-20T08:12:05;25.20;43.20
22290;DHT22;11313;50.116;8.424;2023-12-20T08:14:31;25.20;43.20
22290;DHT22;11313;50.116;8.424;2023-12-20T08:16:57;25.20;43.10
22290;DHT22;11313;50.116;8.424;2023-12-20T08:19:22;25.20;43.20
22290;DHT22;11313;50.116;8.424;2023-12-20T08:21:48;25.20;43.20
22290;DHT22;11313;50.116;8.424;2023-12-20T08:24:13;25.20;43.20
22290;DHT22;11313;50.116;8.424;2023-12-20T08:26:39;25.20;43.20
22290;DHT22;11313;50.116;8.424;2023-12-20T08:29:04;25.20;43.20
22290;DHT22;11313;50.116;8.424;2023-12-20T08:31:30;25.20;43.20
22290;DHT22;11313;50.116;8.424;2023-12-20T08:33:55;25.20;43.20
22290;DHT22;11313;50.116;8.424;2023-12-20T08:36:21;25.20;43.30
22290;DHT22;11313;50.116;8.424;2023-12-20T08:38:48;25.20;43.20
22290;DHT22;11313;50.116;8.424;2023-12-20T08:41:15;25.20;43.30
22290;DHT22;11313;50.116;8.424;2023-12-20T08:43:40;25.20;43.20
22290;DHT22;11313;50.116;8.424;2023-12-20T08:46:06;25.20;43.30
22290;DHT22;11313;50.116;8.424;2023-12-20T08:48:31;25.20;43.30
22290;DHT22;11313;50.116;8.424;2023-12-20T08:50:57;25.20;43.30
22290;DHT22;11313;50.116;8.424;2023-12-20T08:53:22;25.20;43.30
22290;DHT22;11313;50.116;8.424;2023-12-20T08:55:48;25.20;43.20
22290;DHT22;11313;50.116;8.424;2023-12-20T08:58:14;25.20;43.20
22290;DHT22;11313;50.116;8.424;2023-12-20T09:00:39;25.20;43.20
22290;DHT22;11313;50.116;8.424;2023-12-20T09:03:05;25.10;43.10
22290;DHT22;11313;50.116;8.424;2023-12-20T09:05:30;25.10;43.20
22290;DHT22;11313;50.116;8.424;2023-12-20T09:07:56;25.10;43.20
22290;DHT22;11313;50.116;8.424;2023-12-20T09:10:21;25.10;43.20
22290;DHT22;11313;50.116;8.424;2023-12-20T09:12:51;25.10;43.20
22290;DHT22;11313;50.116;8.424;2023-12-20T09:15:24;25.10;43.20
22290;DHT22;11313;50.116;8.424;2023-12-20T09:17:50;25.10;43.20
22290;DHT22;11313;50.116;8.424;2023-12-20T09:20:16;25.10;43.20
22290;DHT22;11313;50.116;8.424;2023-12-20T09:22:41;25.10;43.20
22290;DHT22;11313;50.116;8.424;2023-12-20T09:25:07;25.10;43.20
22290;DHT22;11313;50.116;8.424;2023-12-20T09:27:33;25.10;43.20
22290;DHT22;11313;50.116;8.424;2023-12-20T09:29:58;25.10;43.20
22290;DHT22;11313;50.116;8.424;2023-12-20T09:32:24;25.10;43.30
22290;DHT22;11313;50.116;8.424;2023-12-20T09:34:49;25.10;43.30
22290;DHT22;11313;50.116;8.424;2023-12-20T09:37:15;25.10;43.30
22290;DHT22;11313;50.116;8.424;2023-12-20T09:39:40;25.10;43.30
22290;DHT22;11313;50.116;8.424;2023-12-20T09:42:07;25.10;43.30
22290;DHT22;11313;50.116;8.424;2023-12-20T09:44:33;25.10;43.30
22290;DHT22;11313;50.116;8.424;2023-12-20T09:47:03;25.10;43.30
22290;DHT22;11313;50.116;8.424;2023-12-20T09:49:30;25.10;43.30
22290;DHT22;11313;50.116;8.424;2023-12-20T09:51:56;25.10;43.30
22290;DHT22;11313;50.116;8.424;2023-12-20T09:54:22;25.10;43.30
22290;DHT22;11313;50.116;8.424;2023-12-20T09:56:49;25.10;43.30
22290;DHT22;11313;50.116;8.424;2023-12-20T09:59:15;25.10;43.30
22290;DHT22;11313;50.116;8.424;2023-12-20T10:01:41;25.10;43.30
22290;DHT22;11313;50.116;8.424;2023-12-20T10:04:09;25.10;43.40
22290;DHT22;11313;50.116;8.424;2023-12-20T10:06:40;25.10;43.30
22290;DHT22;11313;50.116;8.424;2023-12-20T10:09:06;25.10;43.30
22290;DHT22;11313;50.116;8.424;2023-12-20T10:11:32;25.10;43.30
22290;DHT22;11313;50.116;8.424;2023-12-20T10:14:00;25.10;43.30
22290;DHT22;11313;50.116;8.424;2023-12-20T10:16:27;25.10;43.30
22290;DHT22;11313;50.116;8.424;2023-12-20T10:18:53;25.10;43.30
22290;DHT22;11313;50.116;8.424;2023-12-20T10:21:19;25.10;43.30
22290;DHT22;11313;50.116;8.424;2023-12-20T10:23:45;25.10;43.30
22290;DHT22;11313;50.116;8.424;2023-12-20T10:26:22;25.10;43.30
22290;DHT22;11313;50.116;8.424;2023-12-20T10:28:55;25.10;43.30
22290;DHT22;11313;50.116;8.424;2023-12-20T10:31:33;25.10;43.30
22290;DHT22;11313;50.116;8.424;2023-12-20T10:34:01;25.10;43.20
22290;DHT22;11313;50.116;8.424;2023-12-20T10:36:29;25.10;43.20
22290;DHT22;11313;50.116;8.424;2023-12-20T10:38:56;25.10;43.20
22290;DHT22;11313;50.116;8.424;2023-12-20T10:41:32;25.10;43.30
22290;DHT22;11313;50.116;8.424;2023-12-20T10:43:59;25.20;43.30
22290;DHT22;11313;50.116;8.424;2023-12-20T10:46:27;25.20;43.30
22290;DHT22;11313;50.116;8.424;2023-12-20T10:48:54;25.20;43.20
22290;DHT22;11313;50.116;8.424;2023-12-20T10:51:20;25.20;43.20
22290;DHT22;11313;50.116;8.424;2023-12-20T10:53:50;25.20;43.20
22290;DHT22;11313;50.116;8.424;2023-12-20T10:56:17;25.20;43.20
22290;DHT22;11313;50.116;8.424;2023-12-20T10:58:44;25.20;43.30
22290;DHT22;11313;50.116;8.424;2023-12-20T11:01:15;25.20;43.20
22290;DHT22;11313;50.116;8.424;2023-12-20T11:03:47;25.20;43.20
22290;DHT22;11313;50.116;8.424;2023-12-20T11:06:33;25.20;43.20
22290;DHT22;11313;50.116;8.424;2023-12-20T11:09:12;25.20;43.20
22290;DHT22;11313;50.116;8.424;2023-12-20T11:14:22;25.30;43.20
22290;DHT22;11313;50.116;8.424;2023-12-20T11:16:49;25.30;43.20
22290;DHT22;11313;50.116;8.424;2023-12-20T11:19:14;25.30;43.10
22290;DHT22;11313;50.116;8.424;2023-12-20T11:21:40;25.30;43.20
22290;DHT22;11313;50.116;8.424;2023-12-20T11:24:06;25.30;43.10
22290;DHT22;11313;50.116;8.424;2023-12-20T11:26:31;25.30;43.10
22290;DHT22;11313;50.116;8.424;2023-12-20T11:29:32;25.30;43.00
22290;DHT22;11313;50.116;8.424;2023-12-20T11:34:55;25.40;43.10
22290;DHT22;11313;50.116;8.424;2023-12-20T11:37:21;25.40;43.00
22290;DHT22;11313;50.116;8.424;2023-12-20T11:39:55;25.40;43.00
22290;DHT22;11313;50.116;8.424;2023-12-20T11:42:21;25.40;43.00
22290;DHT22;11313;50.116;8.424;2023-12-20T11:44:47;25.40;42.90
22290;DHT22;11313;50.116;8.424;2023-12-20T11:47:13;25.40;43.00
22290;DHT22;11313;50.116;8.424;2023-12-20T11:49:39;25.40;42.90
22290;DHT22;11313;50.116;8.424;2023-12-20T11:52:05;25.40;42.90
22290;DHT22;11313;50.116;8.424;2023-12-20T11:54:31;25.40;42.90
22290;DHT22;11313;50.116;8.424;2023-12-20T11:56:56;25.40;43.50
22290;DHT22;11313;50.116;8.424;2023-12-20T11:59:22;25.40;42.90
22290;DHT22;11313;50.116;8.424;2023-12-20T12:01:49;25.40;42.90
22290;DHT22;11313;50.116;8.424;2023-12-20T12:04:15;25.40;42.90
22290;DHT22;11313;50.116;8.424;2023-12-20T12:06:43;25.40;42.90
22290;DHT22;11313;50.116;8.424;2023-12-20T12:09:08;25.40;42.90
22290;DHT22;11313;50.116;8.424;2023-12-20T12:11:34;25.40;42.90
22290;DHT22;11313;50.116;8.424;2023-12-20T12:14:00;25.40;42.90
22290;DHT22;11313;50.116;8.424;2023-12-20T12:16:26;25.40;42.90
22290;DHT22;11313;50.116;8.424;2023-12-20T12:18:56;25.40;43.00
22290;DHT22;11313;50.116;8.424;2023-12-20T12:21:21;25.40;43.00
22290;DHT22;11313;50.116;8.424;2023-12-20T12:23:48;25.40;43.00
22290;DHT22;11313;50.116;8.424;2023-12-20T12:26:13;25.40;43.00
22290;DHT22;11313;50.116;8.424;2023-12-20T12:28:42;25.40;43.00
22290;DHT22;11313;50.116;8.424;2023-12-20T12:31:08;25.40;43.00
22290;DHT22;11313;50.116;8.424;2023-12-20T12:33:34;25.40;43.00
22290;DHT22;11313;50.116;8.424;2023-12-20T12:36:01;25.40;43.00
22290;DHT22;11313;50.116;8.424;2023-12-20T12:38:26;25.40;43.00
22290;DHT22;11313;50.116;8.424;2023-12-20T12:40:54;25.40;43.00
22290;DHT22;11313;50.116;8.424;2023-12-20T12:43:19;25.40;43.00
22290;DHT22;11313;50.116;8.424;2023-12-20T12:45:45;25.40;43.00
22290;DHT22;11313;50.116;8.424;2023-12-20T12:48:11;25.30;43.00
22290;DHT22;11313;50.116;8.424;2023-12-20T12:50:36;25.30;43.00
22290;DHT22;11313;50.116;8.424;2023-12-20T12:53:02;25.40;43.00
22290;DHT22;11313;50.116;8.424;2023-12-20T12:55:28;25.40;43.00
22290;DHT22;11313;50.116;8.424;2023-12-20T12:57:53;25.30;43.00
22290;DHT22;11313;50.116;8.424;2023-12-20T13:00:19;25.40;43.00
22290;DHT22;11313;50.116;8.424;2023-12-20T13:02:45;25.40;43.00
22290;DHT22;11313;50.116;8.424;2023-12-20T13:05:10;25.40;43.10
22290;DHT22;11313;50.116;8.424;2023-12-20T13:07:36;25.30;43.00
22290;DHT22;11313;50.116;8.424;2023-12-20T13:10:03;25.40;43.00
22290;DHT22;11313;50.116;8.424;2023-12-20T13:12:29;25.30;43.00
22290;DHT22;11313;50.116;8.424;2023-12-20T13:14:55;25.40;43.00
22290;DHT22;11313;50.116;8.424;2023-12-20T13:17:20;25.40;43.00
22290;DHT22;11313;50.116;8.424;2023-12-20T13:19:46;25.40;43.00
22290;DHT22;11313;50.116;8.424;2023-12-20T13:22:12;25.40;43.00
22290;DHT22;11313;50.116;8.424;2023-12-20T13:24:37;25.40;43.00
22290;DHT22;11313;50.116;8.424;2023-12-20T13:27:03;25.40;43.00
22290;DHT22;11313;50.116;8.424;2023-12-20T13:29:28;25.40;43.00
22290;DHT22;11313;50.116;8.424;2023-12-20T13:31:54;25.40;43.00
22290;DHT22;11313;50.116;8.424;2023-12-20T13:34:19;25.40;43.00
22290;DHT22;11313;50.116;8.424;2023-12-20T13:36:45;25.40;43.00
22290;DHT22;11313;50.116;8.424;2023-12-20T13:39:13;25.40;43.00
22290;DHT22;11313;50.116;8.424;2023-12-20T13:41:39;25.40;43.00
22290;DHT22;11313;50.116;8.424;2023-12-20T13:44:04;25.40;43.00
22290;DHT22;11313;50.116;8.424;2023-12-20T13:46:30;25.40;43.00
22290;DHT22;11313;50.116;8.424;2023-12-20T13:48:56;25.40;43.00
22290;DHT22;11313;50.116;8.424;2023-12-20T13:51:22;25.40;43.00
22290;DHT22;11313;50.116;8.424;2023-12-20T13:53:48;25.40;43.00
22290;DHT22;11313;50.116;8.424;2023-12-20T13:56:14;25.40;43.00
22290;DHT22;11313;50.116;8.424;2023-12-20T13:58:40;25.40;43.00
22290;DHT22;11313;50.116;8.424;2023-12-20T14:01:07;25.40;43.00
22290;DHT22;11313;50.116;8.424;2023-12-20T14:03:33;25.40;43.00
22290;DHT22;11313;50.116;8.424;2023-12-20T14:05:59;25.40;43.00
22290;DHT22;11313;50.116;8.424;2023-12-20T14:08:25;25.40;43.00
22290;DHT22;11313;50.116;8.424;2023-12-20T14:10:52;25.40;43.00
22290;DHT22;11313;50.116;8.424;2023-12-20T14:13:17;25.40;43.00
22290;DHT22;11313;50.116;8.424;2023-12-20T14:15:43;25.40;43.00
22290;DHT22;11313;50.116;8.424;2023-12-20T14:18:09;25.40;43.00
22290;DHT22;11313;50.116;8.424;2023-12-20T14:20:35;25.40;43.00
22290;DHT22;11313;50.116;8.424;2023-12-20T14:23:04;25.40;43.00
22290;DHT22;11313;50.116;8.424;2023-12-20T14:25:30;25.40;43.00
22290;DHT22;11313;50.116;8.424;2023-12-20T14:27:56;25.40;43.00
22290;DHT22;11313;50.116;8.424;2023-12-20T14:30:22;25.40;43.00
22290;DHT22;11313;50.116;8.424;2023-12-20T14:32:48;25.40;43.00
22290;DHT22;11313;50.116;8.424;2023-12-20T14:35:14;25.40;43.10
22290;DHT22;11313;50.116;8.424;2023-12-20T14:37:40;25.40;43.10
22290;DHT22;11313;50.116;8.424;2023-12-20T14:40:10;25.40;43.10
22290;DHT22;11313;50.116;8.424;2023-12-20T14:42:36;25.40;43.10
22290;DHT22;11313;50.116;8.424;2023-12-20T14:45:02;25.40;43.10
22290;DHT22;11313;50.116;8.424;2023-12-20T14:47:28;25.30;43.00
22290;DHT22;11313;50.116;8.424;2023-12-20T14:49:53;25.40;43.10
22290;DHT22;11313;50.116;8.424;2023-12-20T14:52:18;25.40;43.10
22290;DHT22;11313;50.116;8.424;2023-12-20T14:54:44;25.30;43.00
22290;DHT22;11313;50.116;8.424;2023-12-20T14:57:10;25.30;43.10
22290;DHT22;11313;50.116;8.424;2023-12-20T14:59:35;25.30;43.10
22290;DHT22;11313;50.116;8.424;2023-12-20T15:02:01;25.30;43.10
22290;DHT22;11313;50.116;8.424;2023-12-20T15:04:33;25.30;43.00
22290;DHT22;11313;50.116;8.424;2023-12-20T15:06:58;25.30;43.00
22290;DHT22;11313;50.116;8.424;2023-12-20T15:09:24;25.30;43.10
22290;DHT22;11313;50.116;8.424;2023-12-20T15:11:50;25.30;43.10
22290;DHT22;11313;50.116;8.424;2023-12-20T15:14:15;25.30;43.00
22290;DHT22;11313;50.116;8.424;2023-12-20T15:16:45;25.30;43.00
22290;DHT22;11313;50.116;8.424;2023-12-20T15:19:11;25.30;43.00
22290;DHT22;11313;50.116;8.424;2023-12-20T15:21:37;25.30;43.00
22290;DHT22;11313;50.116;8.424;2023-12-20T15:24:10;25.30;43.00
22290;DHT22;11313;50.116;8.424;2023-12-20T15:26:40;25.30;43.00
22290;DHT22;11313;50.116;8.424;2023-12-20T15:29:06;25.30;43.00